sensor_id;sensor_type;location;lat;lon;timestamp;temperature;humidity
71994;DHT22;59861;50.268;8.648;2023-07-20T00:01:32;21.70;58.20
71994;DHT22;59861;50.268;8.648;2023-07-20T00:03:59;21.60;58.10
71994;DHT22;59861;50.268;8.648;2023-07-20T00:06:26;21.70;58.30
71994;DHT22;59861;50.268;8.648;2023-07-20T00:08:58;21.70;58.20
71994;DHT22;59861;50.268;8.648;2023-07-20T00:11:25;21.70;58.30
71994;DHT22;59861;50.268;8.648;2023-07-20T00:13:52;21.60;59.00
71994;DHT22;59861;50.268;8.648;2023-07-20T00:16:19;21.60;58.20
71994;DHT22;59861;50.268;8.648;2023-07-20T00:18:45;21.70;58.30
71994;DHT22;59861;50.268;8.648;2023-07-20T00:21:12;21.60;58.20
71994;DHT22;59861;50.268;8.648;2023-07-20T00:23:39;21.60;58.30
71994;DHT22;59861;50.268;8.648;2023-07-20T00:26:06;21.60;58.20
71994;DHT22;59861;50.268;8.648;2023-07-20T00:28:33;21.60;58.30
71994;DHT22;59861;50.268;8.648;2023-07-20T00:31:00;21.60;58.20
71994;DHT22;59861;50.268;8.648;2023-07-20T00:33:27;21.60;58.30
71994;DHT22;59861;50.268;8.648;2023-07-20T00:35:53;21.60;58.20
71994;DHT22;59861;50.268;8.648;2023-07-20T00:38:20;21.60;58.20
71994;DHT22;59861;50.268;8.648;2023-07-20T00:40:47;21.60;58.20
71994;DHT22;59861;50.268;8.648;2023-07-20T00:43:15;21.60;58.20
71994;DHT22;59861;50.268;8.648;2023-07-20T00:45:42;21.60;58.20
71994;DHT22;59861;50.268;8.648;2023-07-20T00:48:08;21.60;58.30
71994;DHT22;59861;50.268;8.648;2023-07-20T00:50:35;21.60;58.30
71994;DHT22;59861;50.268;8.648;2023-07-20T00:53:03;21.60;58.30
71994;DHT22;59861;50.268;8.648;2023-07-20T00:55:33;21.60;58.20
71994;DHT22;59861;50.268;8.648;2023-07-20T00:58:00;21.60;58.20
71994;DHT22;59861;50.268;8.648;2023-07-20T01:00:27;21.60;58.30
71994;DHT22;59861;50.268;8.648;2023-07-20T01:02:54;21.50;58.30
71994;DHT22;59861;50.268;8.648;2023-07-20T01:05:21;21.60;58.30
71994;DHT22;59861;50.268;8.648;2023-07-20T01:10:39;21.60;58.30
71994;DHT22;59861;50.268;8.648;2023-07-20T01:13:07;21.60;58.30
71994;DHT22;59861;50.268;8.648;2023-07-20T01:15:34;21.50;58.30
71994;DHT22;59861;50.268;8.648;2023-07-20T01:18:00;21.60;58.40
71994;DHT22;59861;50.268;8.648;2023-07-20T01:20:27;21.60;58.30
71994;DHT22;59861;50.268;8.648;2023-07-20T01:33:20;21.60;58.40
71994;DHT22;59861;50.268;8.648;2023-07-20T01:35:50;21.60;58.50
71994;DHT22;59861;50.268;8.648;2023-07-20T01:38:16;21.60;58.40
71994;DHT22;59861;50.268;8.648;2023-07-20T01:40:43;21.60;58.30
71994;DHT22;59861;50.268;8.648;2023-07-20T01:43:10;21.60;58.40
71994;DHT22;59861;50.268;8.648;2023-07-20T01:45:37;21.60;58.40
71994;DHT22;59861;50.268;8.648;2023-07-20T01:48:04;21.60;58.40
71994;DHT22;59861;50.268;8.648;2023-07-20T01:50:30;21.60;58.40
71994;DHT22;59861;50.268;8.648;2023-07-20T01:52:58;21.50;58.30
71994;DHT22;59861;50.268;8.648;2023-07-20T01:55:25;21.50;58.30
71994;DHT22;59861;50.268;8.648;2023-07-20T01:57:52;21.50;58.50
71994;DHT22;59861;50.268;8.648;2023-07-20T02:00:19;21.50;58.40
71994;DHT22;59861;50.268;8.648;2023-07-20T02:02:47;21.50;58.40
71994;DHT22;59861;50.268;8.648;2023-07-20T02:05:14;21.50;58.50
71994;DHT22;59861;50.268;8.648;2023-07-20T02:07:41;21.50;58.40
71994;DHT22;59861;50.268;8.648;2023-07-20T02:10:08;21.50;58.40
71994;DHT22;59861;50.268;8.648;2023-07-20T02:12:35;21.50;58.50
71994;DHT22;59861;50.268;8.648;2023-07-20T02:15:02;21.50;58.50
71994;DHT22;59861;50.268;8.648;2023-07-20T02:17:29;21.50;58.50
71994;DHT22;59861;50.268;8.648;2023-07-20T02:19:56;21.50;58.50
71994;DHT22;59861;50.268;8.648;2023-07-20T02:22:26;21.50;58.50
71994;DHT22;59861;50.268;8.648;2023-07-20T02:24:53;21.50;58.60
71994;DHT22;59861;50.268;8.648;2023-07-20T02:27:20;21.50;58.50
71994;DHT22;59861;50.268;8.648;2023-07-20T02:29:47;21.50;58.60
71994;DHT22;59861;50.268;8.648;2023-07-20T02:32:13;21.50;58.50
71994;DHT22;59861;50.268;8.648;2023-07-20T02:34:40;21.50;58.60
71994;DHT22;59861;50.268;8.648;2023-07-20T02:37:07;21.50;58.60
71994;DHT22;59861;50.268;8.648;2023-07-20T02:39:34;21.50;58.60
71994;DHT22;59861;50.268;8.648;2023-07-20T02:42:01;21.50;58.60
71994;DHT22;59861;50.268;8.648;2023-07-20T02:44:27;21.50;58.60
71994;DHT22;59861;50.268;8.648;2023-07-20T02:46:54;21.50;58.70
71994;DHT22;59861;50.268;8.648;2023-07-20T02:49:21;21.50;58.80
71994;DHT22;59861;50.268;8.648;2023-07-20T02:51:48;21.50;58.70
71994;DHT22;59861;50.268;8.648;2023-07-20T02:54:15;21.50;58.70
71994;DHT22;59861;50.268;8.648;2023-07-20T02:56:41;21.50;58.80
71994;DHT22;59861;50.268;8.648;2023-07-20T02:59:08;21.50;58.60
71994;DHT22;59861;50.268;8.648;2023-07-20T03:01:35;21.50;58.80
71994;DHT22;59861;50.268;8.648;2023-07-20T03:04:02;21.50;59.40
71994;DHT22;59861;50.268;8.648;2023-07-20T03:06:29;21.50;58.80
71994;DHT22;59861;50.268;8.648;2023-07-20T03:08:56;21.50;58.80
71994;DHT22;59861;50.268;8.648;2023-07-20T03:11:23;21.50;58.80
71994;DHT22;59861;50.268;8.648;2023-07-20T03:13:50;21.50;58.80
71994;DHT22;59861;50.268;8.648;2023-07-20T03:16:17;21.40;58.80
71994;DHT22;59861;50.268;8.648;2023-07-20T03:18:44;21.50;58.80
71994;DHT22;59861;50.268;8.648;2023-07-20T03:21:11;21.40;58.70
71994;DHT22;59861;50.268;8.648;2023-07-20T03:23:38;21.50;58.90
71994;DHT22;59861;50.268;8.648;2023-07-20T03:26:05;21.40;58.80
71994;DHT22;59861;50.268;8.648;2023-07-20T03:28:34;21.40;58.80
71994;DHT22;59861;50.268;8.648;2023-07-20T03:31:01;21.40;58.80
71994;DHT22;59861;50.268;8.648;2023-07-20T03:33:28;21.40;59.50
71994;DHT22;59861;50.268;8.648;2023-07-20T03:35:56;21.40;58.80
71994;DHT22;59861;50.268;8.648;2023-07-20T03:38:23;21.40;58.80
71994;DHT22;59861;50.268;8.648;2023-07-20T03:40:50;21.40;58.90
71994;DHT22;59861;50.268;8.648;2023-07-20T03:43:17;21.50;58.90
71994;DHT22;59861;50.268;8.648;2023-07-20T03:45:44;21.40;58.80
71994;DHT22;59861;50.268;8.648;2023-07-20T03:48:17;21.40;58.80
71994;DHT22;59861;50.268;8.648;2023-07-20T03:50:44;21.40;58.80
71994;DHT22;59861;50.268;8.648;2023-07-20T03:53:12;21.40;58.90
71994;DHT22;59861;50.268;8.648;2023-07-20T03:55:39;21.40;58.60
71994;DHT22;59861;50.268;8.648;2023-07-20T03:58:07;21.40;58.60
71994;DHT22;59861;50.268;8.648;2023-07-20T04:00:34;21.40;59.00
71994;DHT22;59861;50.268;8.648;2023-07-20T04:03:01;21.40;59.10
71994;DHT22;59861;50.268;8.648;2023-07-20T04:05:28;21.40;59.00
71994;DHT22;59861;50.268;8.648;2023-07-20T04:07:55;21.40;59.00
71994;DHT22;59861;50.268;8.648;2023-07-20T04:10:22;21.40;59.10
71994;DHT22;59861;50.268;8.648;2023-07-20T04:12:49;21.40;59.00
71994;DHT22;59861;50.268;8.648;2023-07-20T04:15:15;21.40;59.00
71994;DHT22;59861;50.268;8.648;2023-07-20T04:17:42;21.40;59.00
71994;DHT22;59861;50.268;8.648;2023-07-20T04:20:09;21.40;59.70
71994;DHT22;59861;50.268;8.648;2023-07-20T04:22:36;21.40;59.00
71994;DHT22;59861;50.268;8.648;2023-07-20T04:25:03;21.40;59.00
71994;DHT22;59861;50.268;8.648;2023-07-20T04:27:30;21.40;59.00
71994;DHT22;59861;50.268;8.648;2023-07-20T04:30:00;21.40;59.00
71994;DHT22;59861;50.268;8.648;2023-07-20T04:32:28;21.40;59.00
71994;DHT22;59861;50.268;8.648;2023-07-20T04:34:54;21.40;59.00
71994;DHT22;59861;50.268;8.648;2023-07-20T04:37:21;21.40;58.90
71994;DHT22;59861;50.268;8.648;2023-07-20T04:39:48;21.40;59.00
71994;DHT22;59861;50.268;8.648;2023-07-20T04:42:15;21.40;58.80
71994;DHT22;59861;50.268;8.648;2023-07-20T04:44:42;21.40;58.80
71994;DHT22;59861;50.268;8.648;2023-07-20T04:47:09;21.40;58.80
71994;DHT22;59861;50.268;8.648;2023-07-20T04:49:36;21.40;58.80
71994;DHT22;59861;50.268;8.648;2023-07-20T04:52:03;21.40;58.80
71994;DHT22;59861;50.268;8.648;2023-07-20T04:54:30;21.40;58.80
71994;DHT22;59861;50.268;8.648;2023-07-20T04:56:57;21.40;58.90
71994;DHT22;59861;50.268;8.648;2023-07-20T04:59:23;21.40;58.80
71994;DHT22;59861;50.268;8.648;2023-07-20T05:01:50;21.40;58.80
71994;DHT22;59861;50.268;8.648;2023-07-20T05:04:17;21.40;58.70
71994;DHT22;59861;50.268;8.648;2023-07-20T05:06:44;21.40;58.70
71994;DHT22;59861;50.268;8.648;2023-07-20T05:09:10;21.40;58.70
71994;DHT22;59861;50.268;8.648;2023-07-20T05:11:37;21.40;58.70
71994;DHT22;59861;50.268;8.648;2023-07-20T05:14:04;21.40;58.70
71994;DHT22;59861;50.268;8.648;2023-07-20T05:16:31;21.40;58.70
71994;DHT22;59861;50.268;8.648;2023-07-20T05:18:58;21.40;58.70
71994;DHT22;59861;50.268;8.648;2023-07-20T05:21:25;21.40;58.70
71994;DHT22;59861;50.268;8.648;2023-07-20T05:23:51;21.40;58.70
71994;DHT22;59861;50.268;8.648;2023-07-20T05:26:18;21.40;58.70
71994;DHT22;59861;50.268;8.648;2023-07-20T05:28:45;21.40;58.70
71994;DHT22;59861;50.268;8.648;2023-07-20T05:31:12;21.40;58.70
71994;DHT22;59861;50.268;8.648;2023-07-20T05:33:39;21.40;58.70
71994;DHT22;59861;50.268;8.648;2023-07-20T05:36:05;21.40;58.70
71994;DHT22;59861;50.268;8.648;2023-07-20T05:38:32;21.40;58.70
71994;DHT22;59861;50.268;8.648;2023-07-20T05:40:59;21.40;58.70
71994;DHT22;59861;50.268;8.648;2023-07-20T05:43:29;21.40;58.70
71994;DHT22;59861;50.268;8.648;2023-07-20T05:45:57;21.40;58.70
71994;DHT22;59861;50.268;8.648;2023-07-20T05:48:23;21.40;58.60
71994;DHT22;59861;50.268;8.648;2023-07-20T05:50:50;21.40;58.70
71994;DHT22;59861;50.268;8.648;2023-07-20T05:53:17;21.40;58.70
71994;DHT22;59861;50.268;8.648;2023-07-20T05:55:44;21.40;58.60
71994;DHT22;59861;50.268;8.648;2023-07-20T05:58:11;21.40;58.70
71994;DHT22;59861;50.268;8.648;2023-07-20T06:00:37;21.40;58.60
71994;DHT22;59861;50.268;8.648;2023-07-20T06:03:05;21.40;58.60
71994;DHT22;59861;50.268;8.648;2023-07-20T06:05:32;21.40;58.50
71994;DHT22;59861;50.268;8.648;2023-07-20T06:07:59;21.40;58.60
71994;DHT22;59861;50.268;8.648;2023-07-20T06:10:26;21.40;58.60
71994;DHT22;59861;50.268;8.648;2023-07-20T06:12:53;21.40;58.60
71994;DHT22;59861;50.268;8.648;2023-07-20T06:15:24;21.40;58.60
71994;DHT22;59861;50.268;8.648;2023-07-20T06:17:51;21.40;58.60
71994;DHT22;59861;50.268;8.648;2023-07-20T06:20:18;21.40;58.60
71994;DHT22;59861;50.268;8.648;2023-07-20T06:22:45;21.40;58.60
71994;DHT22;59861;50.268;8.648;2023-07-20T06:25:12;21.40;58.60
71994;DHT22;59861;50.268;8.648;2023-07-20T06:27:38;21.40;58.50
71994;DHT22;59861;50.268;8.648;2023-07-20T06:30:06;21.40;58.50
71994;DHT22;59861;50.268;8.648;2023-07-20T06:32:32;21.40;58.50
71994;DHT22;59861;50.268;8.648;2023-07-20T06:34:59;21.40;58.50
71994;DHT22;59861;50.268;8.648;2023-07-20T06:37:26;21.40;58.60
71994;DHT22;59861;50.268;8.648;2023-07-20T06:39:53;21.40;58.50
71994;DHT22;59861;50.268;8.648;2023-07-20T06:42:20;21.40;58.60
71994;DHT22;59861;50.268;8.648;2023-07-20T06:44:46;21.40;58.40
71994;DHT22;59861;50.268;8.648;2023-07-20T06:47:13;21.50;58.60
71994;DHT22;59861;50.268;8.648;2023-07-20T06:49:40;21.40;58.50
71994;DHT22;59861;50.268;8.648;2023-07-20T06:52:07;21.40;58.40
71994;DHT22;59861;50.268;8.648;2023-07-20T06:54:34;21.50;58.50
71994;DHT22;59861;50.268;8.648;2023-07-20T06:57:00;21.40;58.50
71994;DHT22;59861;50.268;8.648;2023-07-20T06:59:27;21.40;58.50
71994;DHT22;59861;50.268;8.648;2023-07-20T07:01:54;21.40;58.40
71994;DHT22;59861;50.268;8.648;2023-07-20T07:04:21;21.50;58.40
71994;DHT22;59861;50.268;8.648;2023-07-20T07:06:48;21.40;58.40
71994;DHT22;59861;50.268;8.648;2023-07-20T07:09:15;21.50;58.40
71994;DHT22;59861;50.268;8.648;2023-07-20T07:11:42;21.50;58.40
71994;DHT22;59861;50.268;8.648;2023-07-20T07:14:09;21.50;58.40
71994;DHT22;59861;50.268;8.648;2023-07-20T07:16:35;21.50;58.40
71994;DHT22;59861;50.268;8.648;2023-07-20T07:19:02;21.40;58.40
71994;DHT22;59861;50.268;8.648;2023-07-20T07:21:29;21.50;58.50
71994;DHT22;59861;50.268;8.648;2023-07-20T07:23:56;21.50;58.50
71994;DHT22;59861;50.268;8.648;2023-07-20T07:26:23;21.40;58.40
71994;DHT22;59861;50.268;8.648;2023-07-20T07:28:50;21.50;58.60
71994;DHT22;59861;50.268;8.648;2023-07-20T07:31:17;21.40;58.50
71994;DHT22;59861;50.268;8.648;2023-07-20T07:33:43;21.50;58.60
71994;DHT22;59861;50.268;8.648;2023-07-20T07:36:10;21.40;58.60
71994;DHT22;59861;50.268;8.648;2023-07-20T07:38:37;21.50;58.60
71994;DHT22;59861;50.268;8.648;2023-07-20T07:41:04;21.50;58.50
71994;DHT22;59861;50.268;8.648;2023-07-20T07:43:31;21.40;58.50
71994;DHT22;59861;50.268;8.648;2023-07-20T07:45:59;21.50;58.50
71994;DHT22;59861;50.268;8.648;2023-07-20T07:48:26;21.50;58.50
71994;DHT22;59861;50.268;8.648;2023-07-20T07:50:53;21.50;58.50
71994;DHT22;59861;50.268;8.648;2023-07-20T07:53:20;21.50;58.60
71994;DHT22;59861;50.268;8.648;2023-07-20T07:55:47;21.50;58.60
71994;DHT22;59861;50.268;8.648;2023-07-20T07:58:14;21.50;58.60
71994;DHT22;59861;50.268;8.648;2023-07-20T08:00:41;21.50;58.50
71994;DHT22;59861;50.268;8.648;2023-07-20T08:03:09;21.40;58.50
71994;DHT22;59861;50.268;8.648;2023-07-20T08:05:36;21.50;58.60
71994;DHT22;59861;50.268;8.648;2023-07-20T08:08:03;21.50;58.70
71994;DHT22;59861;50.268;8.648;2023-07-20T08:10:30;21.50;58.50
71994;DHT22;59861;50.268;8.648;2023-07-20T08:12:57;21.50;58.60
71994;DHT22;59861;50.268;8.648;2023-07-20T08:15:23;21.50;58.60
71994;DHT22;59861;50.268;8.648;2023-07-20T08:17:50;21.50;58.80
71994;DHT22;59861;50.268;8.648;2023-07-20T08:20:17;21.50;58.50
71994;DHT22;59861;50.268;8.648;2023-07-20T08:22:44;21.50;58.50
71994;DHT22;59861;50.268;8.648;2023-07-20T08:25:11;21.50;58.90
71994;DHT22;59861;50.268;8.648;2023-07-20T08:27:38;21.50;58.70
71994;DHT22;59861;50.268;8.648;2023-07-20T08:30:07;21.50;58.60
71994;DHT22;59861;50.268;8.648;2023-07-20T08:32:34;21.50;58.80
71994;DHT22;59861;50.268;8.648;2023-07-20T08:35:01;21.50;58.60
71994;DHT22;59861;50.268;8.648;2023-07-20T08:37:28;21.50;58.50
71994;DHT22;59861;50.268;8.648;2023-07-20T08:39:54;21.50;58.60
71994;DHT22;59861;50.268;8.648;2023-07-20T08:42:21;21.50;58.70
71994;DHT22;59861;50.268;8.648;2023-07-20T08:44:49;21.50;58.40
71994;DHT22;59861;50.268;8.648;2023-07-20T08:47:16;21.50;58.60
71994;DHT22;59861;50.268;8.648;2023-07-20T08:49:43;21.50;58.40
71994;DHT22;59861;50.268;8.648;2023-07-20T08:52:11;21.50;59.00
71994;DHT22;59861;50.268;8.648;2023-07-20T08:57:24;21.50;58.50
71994;DHT22;59861;50.268;8.648;2023-07-20T08:59:52;21.40;58.70
71994;DHT22;59861;50.268;8.648;2023-07-20T09:02:19;21.50;58.60
71994;DHT22;59861;50.268;8.648;2023-07-20T09:04:47;21.50;58.60
71994;DHT22;59861;50.268;8.648;2023-07-20T09:07:15;21.50;58.50
71994;DHT22;59861;50.268;8.648;2023-07-20T09:09:42;21.50;58.40
71994;DHT22;59861;50.268;8.648;2023-07-20T09:12:15;21.50;58.40
71994;DHT22;59861;50.268;8.648;2023-07-20T09:14:42;21.50;58.60
71994;DHT22;59861;50.268;8.648;2023-07-20T09:17:13;21.50;58.40
71994;DHT22;59861;50.268;8.648;2023-07-20T09:19:47;21.50;58.50
71994;DHT22;59861;50.268;8.648;2023-07-20T09:22:14;21.50;58.40
71994;DHT22;59861;50.268;8.648;2023-07-20T09:24:41;21.40;58.40
71994;DHT22;59861;50.268;8.648;2023-07-20T09:27:08;21.50;58.30
71994;DHT22;59861;50.268;8.648;2023-07-20T09:29:49;21.50;58.30
71994;DHT22;59861;50.268;8.648;2023-07-20T09:32:19;21.50;58.40
71994;DHT22;59861;50.268;8.648;2023-07-20T09:34:49;21.50;58.30
71994;DHT22;59861;50.268;8.648;2023-07-20T09:37:24;21.50;58.40
71994;DHT22;59861;50.268;8.648;2023-07-20T09:39:48;21.50;58.40
71994;DHT22;59861;50.268;8.648;2023-07-20T09:42:17;21.50;58.30
71994;DHT22;59861;50.268;8.648;2023-07-20T09:44:44;21.50;58.30
71994;DHT22;59861;50.268;8.648;2023-07-20T09:47:11;21.50;58.40
71994;DHT22;59861;50.268;8.648;2023-07-20T09:49:41;21.50;58.40
71994;DHT22;59861;50.268;8.648;2023-07-20T09:52:08;21.50;58.40
71994;DHT22;59861;50.268;8.648;2023-07-20T09:54:37;21.50;58.30
71994;DHT22;59861;50.268;8.648;2023-07-20T09:57:03;21.50;58.40
71994;DHT22;59861;50.268;8.648;2023-07-20T09:59:31;21.50;58.40
71994;DHT22;59861;50.268;8.648;2023-07-20T10:01:58;21.50;58.40
71994;DHT22;59861;50.268;8.648;2023-07-20T10:04:26;21.50;58.30
71994;DHT22;59861;50.268;8.648;2023-07-20T10:06:55;21.50;58.30
71994;DHT22;59861;50.268;8.648;2023-07-20T10:09:22;21.50;58.30
71994;DHT22;59861;50.268;8.648;2023-07-20T10:11:50;21.50;57.80
71994;DHT22;59861;50.268;8.648;2023-07-20T10:14:19;21.50;58.40
71994;DHT22;59861;50.268;8.648;2023-07-20T10:16:54;21.50;58.40
71994;DHT22;59861;50.268;8.648;2023-07-20T10:19:25;21.50;58.30
71994;DHT22;59861;50.268;8.648;2023-07-20T10:22:03;21.50;59.00
71994;DHT22;59861;50.268;8.648;2023-07-20T10:24:27;21.50;58.50
71994;DHT22;59861;50.268;8.648;2023-07-20T10:26:55;21.50;58.40
71994;DHT22;59861;50.268;8.648;2023-07-20T10:29:22;21.50;58.40
71994;DHT22;59861;50.268;8.648;2023-07-20T10:31:49;21.50;58.40
71994;DHT22;59861;50.268;8.648;2023-07-20T10:34:16;21.50;58.30
71994;DHT22;59861;50.268;8.648;2023-07-20T10:36:48;21.50;58.40
71994;DHT22;59861;50.268;8.648;2023-07-20T10:39:24;21.50;58.50
71994;DHT22;59861;50.268;8.648;2023-07-20T10:42:09;21.50;58.40
71994;DHT22;59861;50.268;8.648;2023-07-20T10:44:42;21.50;58.50
71994;DHT22;59861;50.268;8.648;2023-07-20T10:47:11;21.50;58.30
71994;DHT22;59861;50.268;8.648;2023-07-20T10:52:23;21.50;58.40
71994;DHT22;59861;50.268;8.648;2023-07-20T10:54:50;21.50;58.40
71994;DHT22;59861;50.268;8.648;2023-07-20T10:57:23;21.50;58.40
71994;DHT22;59861;50.268;8.648;2023-07-20T10:59:50;21.50;57.80
71994;DHT22;59861;50.268;8.648;2023-07-20T11:02:18;21.50;58.40
71994;DHT22;59861;50.268;8.648;2023-07-20T11:04:46;21.50;58.50
71994;DHT22;59861;50.268;8.648;2023-07-20T11:07:17;21.50;58.50
71994;DHT22;59861;50.268;8.648;2023-07-20T11:09:44;21.50;58.50
71994;DHT22;59861;50.268;8.648;2023-07-20T11:12:11;21.50;58.50
71994;DHT22;59861;50.268;8.648;2023-07-20T11:14:42;21.50;58.50
71994;DHT22;59861;50.268;8.648;2023-07-20T11:17:13;21.50;58.50
71994;DHT22;59861;50.268;8.648;2023-07-20T11:19:40;21.50;58.40
71994;DHT22;59861;50.268;8.648;2023-07-20T11:22:07;21.50;58.50
71994;DHT22;59861;50.268;8.648;2023-07-20T11:24:38;21.50;58.60
71994;DHT22;59861;50.268;8.648;2023-07-20T11:27:03;21.50;58.60
71994;DHT22;59861;50.268;8.648;2023-07-20T11:29:30;21.50;59.20
71994;DHT22;59861;50.268;8.648;2023-07-20T11:31:57;21.50;58.40
71994;DHT22;59861;50.268;8.648;2023-07-20T11:34:27;21.50;58.50
71994;DHT22;59861;50.268;8.648;2023-07-20T11:36:54;21.50;58.50
71994;DHT22;59861;50.268;8.648;2023-07-20T11:39:21;21.50;58.60
71994;DHT22;59861;50.268;8.648;2023-07-20T11:41:52;21.50;58.60
71994;DHT22;59861;50.268;8.648;2023-07-20T11:44:19;21.50;58.60
71994;DHT22;59861;50.268;8.648;2023-07-20T11:46:48;21.50;58.50
71994;DHT22;59861;50.268;8.648;2023-07-20T11:49:14;21.50;58.00
71994;DHT22;59861;50.268;8.648;2023-07-20T11:51:41;21.50;58.50
71994;DHT22;59861;50.268;8.648;2023-07-20T11:54:08;21.50;58.60
71994;DHT22;59861;50.268;8.648;2023-07-20T11:56:35;21.50;58.60
71994;DHT22;59861;50.268;8.648;2023-07-20T11:59:02;21.50;58.50
71994;DHT22;59861;50.268;8.648;2023-07-20T12:01:30;21.50;58.60
71994;DHT22;59861;50.268;8.648;2023-07-20T12:04:01;21.50;58.60
71994;DHT22;59861;50.268;8.648;2023-07-20T12:06:29;21.60;58.50
71994;DHT22;59861;50.268;8.648;2023-07-20T12:08:57;21.60;58.70
71994;DHT22;59861;50.268;8.648;2023-07-20T12:11:35;21.50;58.70
71994;DHT22;59861;50.268;8.648;2023-07-20T12:14:03;21.50;58.60
71994;DHT22;59861;50.268;8.648;2023-07-20T12:16:30;21.50;58.70
71994;DHT22;59861;50.268;8.648;2023-07-20T12:19:00;21.50;58.60
71994;DHT22;59861;50.268;8.648;2023-07-20T12:21:28;21.60;58.80
71994;DHT22;59861;50.268;8.648;2023-07-20T12:23:56;21.50;58.80
71994;DHT22;59861;50.268;8.648;2023-07-20T12:26:24;21.50;58.80
71994;DHT22;59861;50.268;8.648;2023-07-20T12:28:51;21.50;58.70
71994;DHT22;59861;50.268;8.648;2023-07-20T12:31:18;21.60;59.00
71994;DHT22;59861;50.268;8.648;2023-07-20T12:33:47;21.50;58.90
71994;DHT22;59861;50.268;8.648;2023-07-20T12:36:14;21.50;58.60
71994;DHT22;59861;50.268;8.648;2023-07-20T12:38:40;21.50;58.90
71994;DHT22;59861;50.268;8.648;2023-07-20T12:41:09;21.50;58.60
71994;DHT22;59861;50.268;8.648;2023-07-20T12:43:37;21.60;58.70
71994;DHT22;59861;50.268;8.648;2023-07-20T12:46:05;21.50;58.80
71994;DHT22;59861;50.268;8.648;2023-07-20T12:48:32;21.50;58.60
71994;DHT22;59861;50.268;8.648;2023-07-20T12:50:59;21.50;58.90
71994;DHT22;59861;50.268;8.648;2023-07-20T12:53:26;21.50;58.90
71994;DHT22;59861;50.268;8.648;2023-07-20T12:55:53;21.50;58.80
71994;DHT22;59861;50.268;8.648;2023-07-20T12:58:20;21.50;58.90
71994;DHT22;59861;50.268;8.648;2023-07-20T13:00:46;21.50;58.90
71994;DHT22;59861;50.268;8.648;2023-07-20T13:03:13;21.50;58.70
71994;DHT22;59861;50.268;8.648;2023-07-20T13:05:40;21.50;58.90
71994;DHT22;59861;50.268;8.648;2023-07-20T13:08:07;21.50;58.90
71994;DHT22;59861;50.268;8.648;2023-07-20T13:10:34;21.60;58.90
71994;DHT22;59861;50.268;8.648;2023-07-20T13:13:00;21.50;59.00
71994;DHT22;59861;50.268;8.648;2023-07-20T13:15:31;21.60;58.90
71994;DHT22;59861;50.268;8.648;2023-07-20T13:17:58;21.60;59.10
71994;DHT22;59861;50.268;8.648;2023-07-20T13:20:26;21.50;58.90
71994;DHT22;59861;50.268;8.648;2023-07-20T13:22:53;21.60;58.80
71994;DHT22;59861;50.268;8.648;2023-07-20T13:25:20;21.60;59.00
71994;DHT22;59861;50.268;8.648;2023-07-20T13:27:47;21.60;59.00
71994;DHT22;59861;50.268;8.648;2023-07-20T13:30:14;21.60;59.00
71994;DHT22;59861;50.268;8.648;2023-07-20T13:32:43;21.60;58.80
71994;DHT22;59861;50.268;8.648;2023-07-20T13:35:10;21.60;58.90
71994;DHT22;59861;50.268;8.648;2023-07-20T13:37:37;21.60;59.10
71994;DHT22;59861;50.268;8.648;2023-07-20T13:40:04;21.60;59.00
71994;DHT22;59861;50.268;8.648;2023-07-20T13:42:32;21.50;58.90
71994;DHT22;59861;50.268;8.648;2023-07-20T13:44:58;21.60;58.90
71994;DHT22;59861;50.268;8.648;2023-07-20T13:47:26;21.60;59.00
71994;DHT22;59861;50.268;8.648;2023-07-20T13:49:54;21.60;59.00
71994;DHT22;59861;50.268;8.648;2023-07-20T13:52:22;21.60;58.80
71994;DHT22;59861;50.268;8.648;2023-07-20T13:54:48;21.50;59.00
71994;DHT22;59861;50.268;8.648;2023-07-20T13:57:15;21.60;58.90
71994;DHT22;59861;50.268;8.648;2023-07-20T13:59:42;21.60;59.00
71994;DHT22;59861;50.268;8.648;2023-07-20T14:02:09;21.60;59.00
71994;DHT22;59861;50.268;8.648;2023-07-20T14:04:36;21.60;59.10
71994;DHT22;59861;50.268;8.648;2023-07-20T14:07:03;21.50;58.90
71994;DHT22;59861;50.268;8.648;2023-07-20T14:09:30;21.60;59.00
71994;DHT22;59861;50.268;8.648;2023-07-20T14:11:56;21.50;59.00
71994;DHT22;59861;50.268;8.648;2023-07-20T14:14:23;21.60;59.10
71994;DHT22;59861;50.268;8.648;2023-07-20T14:16:50;21.60;59.00
71994;DHT22;59861;50.268;8.648;2023-07-20T14:19:17;21.60;59.00
71994;DHT22;59861;50.268;8.648;2023-07-20T14:21:44;21.60;58.90
71994;DHT22;59861;50.268;8.648;2023-07-20T14:24:11;21.60;59.50
71994;DHT22;59861;50.268;8.648;2023-07-20T14:26:38;21.60;59.00
71994;DHT22;59861;50.268;8.648;2023-07-20T14:29:04;21.60;59.00
71994;DHT22;59861;50.268;8.648;2023-07-20T14:31:31;21.50;59.10
71994;DHT22;59861;50.268;8.648;2023-07-20T14:33:58;21.60;59.00
71994;DHT22;59861;50.268;8.648;2023-07-20T14:36:25;21.50;59.50
71994;DHT22;59861;50.268;8.648;2023-07-20T14:38:52;21.60;59.10
71994;DHT22;59861;50.268;8.648;2023-07-20T14:41:19;21.60;59.10
71994;DHT22;59861;50.268;8.648;2023-07-20T14:43:46;21.60;59.00
71994;DHT22;59861;50.268;8.648;2023-07-20T14:46:13;21.60;59.00
71994;DHT22;59861;50.268;8.648;2023-07-20T14:48:40;21.60;58.80
71994;DHT22;59861;50.268;8.648;2023-07-20T14:51:07;21.60;58.90
71994;DHT22;59861;50.268;8.648;2023-07-20T14:53:34;21.60;59.00
71994;DHT22;59861;50.268;8.648;2023-07-20T14:56:01;21.60;58.90
71994;DHT22;59861;50.268;8.648;2023-07-20T14:58:29;21.60;59.10
71994;DHT22;59861;50.268;8.648;2023-07-20T15:00:56;21.60;59.00
71994;DHT22;59861;50.268;8.648;2023-07-20T15:03:22;21.60;59.10
71994;DHT22;59861;50.268;8.648;2023-07-20T15:05:49;21.60;59.10
71994;DHT22;59861;50.268;8.648;2023-07-20T15:08:17;21.60;59.30
71994;DHT22;59861;50.268;8.648;2023-07-20T15:10:45;21.60;59.10
71994;DHT22;59861;50.268;8.648;2023-07-20T15:13:12;21.60;59.30
71994;DHT22;59861;50.268;8.648;2023-07-20T15:15:39;21.60;59.40
71994;DHT22;59861;50.268;8.648;2023-07-20T15:18:06;21.70;59.60
71994;DHT22;59861;50.268;8.648;2023-07-20T15:20:33;21.70;59.50
71994;DHT22;59861;50.268;8.648;2023-07-20T15:23:00;21.60;59.60
71994;DHT22;59861;50.268;8.648;2023-07-20T15:25:26;21.60;59.60
71994;DHT22;59861;50.268;8.648;2023-07-20T15:27:54;21.70;59.60
71994;DHT22;59861;50.268;8.648;2023-07-20T15:30:21;21.70;59.70
71994;DHT22;59861;50.268;8.648;2023-07-20T15:32:48;21.70;58.30
71994;DHT22;59861;50.268;8.648;2023-07-20T15:35:15;21.60;57.60
71994;DHT22;59861;50.268;8.648;2023-07-20T15:37:41;21.50;57.20
71994;DHT22;59861;50.268;8.648;2023-07-20T15:40:09;21.40;57.00
71994;DHT22;59861;50.268;8.648;2023-07-20T15:42:37;21.40;57.10
71994;DHT22;59861;50.268;8.648;2023-07-20T15:45:04;21.40;57.30
71994;DHT22;59861;50.268;8.648;2023-07-20T15:47:30;21.40;57.20
71994;DHT22;59861;50.268;8.648;2023-07-20T15:49:57;21.40;57.20